Time;durP1;ratioP1;P1;durP2;ratioP2;P2;SDS_P1;SDS_P2;PMS_P1;PMS_P2;Temp;Humidity;BMP_temperature;BMP_pressure;BME280_temperature;BME280_humidity;BME280_pressure;Samples;Min_cycle;Max_cycle;Signal;HPM_P1;HPM_P2
2023/10/26 00:01:37;;;;;;;97.25;90.03;;;16.10;99.90;;;;;;4956798;28;20043;-70
2023/10/26 00:04:03;;;;;;;76.22;70.55;;;16.10;99.90;;;;;;4973421;28;20171;-70
2023/10/26 00:06:30;;;;;;;71.65;65.88;;;16.10;99.90;;;;;;4962982;28;20396;-70
2023/10/26 00:08:56;;;;;;;77.45;71.75;;;16.10;99.90;;;;;;4964045;28;20039;-70
2023/10/26 00:11:22;;;;;;;89.03;82.32;;;16.10;99.90;;;;;;4965472;28;20392;-70
2023/10/26 00:13:48;;;;;;;88.55;82.03;;;16.10;99.90;;;;;;4970929;28;20391;-70
2023/10/26 00:16:14;;;;;;;93.35;86.32;;;16.00;99.90;;;;;;4966255;28;20051;-70
2023/10/26 00:18:40;;;;;;;102.90;95.88;;;16.10;99.90;;;;;;4958154;28;20047;-70
2023/10/26 00:21:06;;;;;;;115.80;108.35;;;16.00;99.90;;;;;;4966386;28;20392;-70
2023/10/26 00:23:32;;;;;;;110.47;103.30;;;16.00;99.90;;;;;;4967044;28;20478;-70
2023/10/26 00:25:58;;;;;;;114.00;106.38;;;16.00;99.90;;;;;;4965667;28;20038;-70
2023/10/26 00:28:24;;;;;;;94.13;87.45;;;16.00;99.90;;;;;;4967153;28;20051;-70
2023/10/26 00:30:51;;;;;;;104.28;97.38;;;16.00;99.90;;;;;;4967933;28;20038;-70
2023/10/26 00:33:17;;;;;;;92.60;85.70;;;16.00;99.90;;;;;;4969951;28;20046;-70
2023/10/26 00:35:43;;;;;;;98.57;91.18;;;16.00;99.90;;;;;;4981642;28;20042;-70
2023/10/26 00:38:09;;;;;;;95.07;88.25;;;16.00;99.90;;;;;;4970339;28;20035;-70
2023/10/26 00:40:35;;;;;;;92.97;86.70;;;16.00;99.90;;;;;;4966346;28;20139;-71
2023/10/26 00:43:02;;;;;;;98.85;92.20;;;16.00;99.90;;;;;;4976073;28;20039;-70
2023/10/26 00:45:28;;;;;;;115.47;107.60;;;16.00;99.90;;;;;;4973437;28;20038;-70
2023/10/26 00:47:54;;;;;;;104.63;96.65;;;15.90;99.90;;;;;;4969858;28;20486;-70
2023/10/26 00:50:20;;;;;;;108.40;100.95;;;16.00;99.90;;;;;;4965149;28;20404;-71
2023/10/26 00:52:46;;;;;;;111.13;103.15;;;15.90;99.90;;;;;;4970518;28;20046;-70
2023/10/26 00:55:13;;;;;;;118.13;109.50;;;15.90;99.90;;;;;;4970768;28;20035;-70
2023/10/26 00:57:39;;;;;;;110.68;103.05;;;16.00;99.90;;;;;;4972289;28;20050;-70
2023/10/26 01:00:07;;;;;;;133.63;124.95;;;15.90;99.90;;;;;;4972744;28;20035;-71
2023/10/26 01:02:33;;;;;;;131.88;123.45;;;16.00;99.90;;;;;;4972946;28;20046;-70
2023/10/26 01:04:59;;;;;;;128.82;120.35;;;16.00;99.90;;;;;;4966207;28;20031;-70
2023/10/26 01:07:25;;;;;;;131.77;122.90;;;16.10;99.90;;;;;;4970385;28;20435;-70
2023/10/26 01:09:51;;;;;;;153.57;142.95;;;16.00;99.90;;;;;;4974417;28;20049;-70
2023/10/26 01:12:18;;;;;;;129.60;121.00;;;16.00;99.90;;;;;;4970967;28;20046;-70
2023/10/26 01:14:44;;;;;;;152.40;142.65;;;16.00;99.90;;;;;;4973739;28;20035;-70
2023/10/26 01:17:10;;;;;;;157.95;147.23;;;16.00;99.90;;;;;;4971212;28;20061;-70
2023/10/26 01:19:40;;;;;;;122.30;112.82;;;16.00;99.90;;;;;;4949485;28;20058;-70
2023/10/26 01:22:06;;;;;;;157.75;147.35;;;16.00;99.90;;;;;;4959253;28;20465;-70
2023/10/26 01:24:33;;;;;;;142.05;132.52;;;16.00;99.90;;;;;;4973972;28;20503;-70
2023/10/26 01:26:59;;;;;;;169.23;158.05;;;16.10;99.90;;;;;;4973364;28;20038;-70
2023/10/26 01:29:25;;;;;;;145.75;135.07;;;16.10;99.90;;;;;;4969940;28;20039;-70
2023/10/26 01:31:51;;;;;;;138.60;128.80;;;16.00;99.90;;;;;;4965918;28;20034;-70
2023/10/26 01:34:17;;;;;;;123.28;114.22;;;16.10;99.90;;;;;;4970394;28;20027;-70
2023/10/26 01:36:43;;;;;;;120.50;111.25;;;16.20;99.90;;;;;;4969786;28;20369;-70
2023/10/26 01:39:10;;;;;;;167.70;156.75;;;16.20;99.90;;;;;;4970485;28;20035;-71
2023/10/26 01:41:36;;;;;;;140.48;131.13;;;16.20;99.90;;;;;;4968043;28;20031;-70
2023/10/26 01:44:02;;;;;;;172.50;161.60;;;16.10;99.90;;;;;;4968493;28;20050;-70
2023/10/26 01:46:28;;;;;;;161.07;150.05;;;16.10;99.90;;;;;;4963637;28;20043;-70
2023/10/26 01:48:54;;;;;;;144.18;134.52;;;16.10;99.90;;;;;;4972005;28;20047;-70
2023/10/26 01:51:20;;;;;;;143.48;134.00;;;16.10;99.90;;;;;;4964129;28;20038;-70
2023/10/26 01:53:46;;;;;;;149.07;138.98;;;16.10;99.90;;;;;;4971059;28;20035;-70
2023/10/26 01:56:13;;;;;;;157.52;146.70;;;16.00;99.90;;;;;;4971030;28;20029;-70
2023/10/26 01:58:39;;;;;;;130.98;121.38;;;16.00;99.90;;;;;;4965195;28;20031;-70
2023/10/26 02:01:05;;;;;;;114.93;107.28;;;16.00;99.90;;;;;;4966655;28;20039;-70
2023/10/26 02:03:31;;;;;;;144.90;134.93;;;16.00;99.90;;;;;;4970211;28;20031;-70
2023/10/26 02:05:57;;;;;;;127.05;118.13;;;15.90;99.90;;;;;;4968234;28;20388;-70
2023/10/26 02:08:24;;;;;;;122.72;113.13;;;16.00;99.90;;;;;;4959178;28;20054;-70
2023/10/26 02:10:50;;;;;;;111.85;103.25;;;16.00;99.90;;;;;;4961712;28;20027;-70
2023/10/26 02:13:16;;;;;;;120.85;112.28;;;16.00;99.90;;;;;;4969959;28;20049;-70
2023/10/26 02:15:42;;;;;;;108.07;100.43;;;16.00;99.90;;;;;;4966492;28;20031;-70
2023/10/26 02:18:08;;;;;;;108.95;100.45;;;15.90;99.90;;;;;;4970485;28;20376;-70
2023/10/26 02:20:34;;;;;;;113.97;105.38;;;15.90;99.90;;;;;;4965159;28;20038;-70
2023/10/26 02:23:02;;;;;;;120.50;111.10;;;16.00;99.90;;;;;;4965192;28;20682;-70
2023/10/26 02:25:28;;;;;;;115.28;107.00;;;16.00;99.90;;;;;;4968742;28;20396;-70
2023/10/26 02:27:54;;;;;;;117.43;107.88;;;16.00;99.90;;;;;;4964032;28;20039;-70
2023/10/26 02:30:20;;;;;;;98.60;90.22;;;16.00;99.90;;;;;;4968490;28;20030;-70
2023/10/26 02:32:46;;;;;;;140.75;130.93;;;16.00;99.90;;;;;;4981684;28;20039;-70
2023/10/26 02:35:12;;;;;;;107.90;99.68;;;16.00;99.90;;;;;;4968717;28;20381;-70
2023/10/26 02:37:39;;;;;;;107.25;98.38;;;16.00;99.90;;;;;;4957256;28;20039;-70
2023/10/26 02:40:06;;;;;;;108.15;99.60;;;16.00;99.90;;;;;;4965905;28;20034;-70
2023/10/26 02:42:33;;;;;;;97.20;89.65;;;15.90;99.90;;;;;;4971698;28;20050;-70
2023/10/26 02:44:59;;;;;;;110.30;101.57;;;15.90;99.90;;;;;;4965884;28;20023;-70
2023/10/26 02:47:25;;;;;;;115.93;107.60;;;15.90;99.90;;;;;;4960870;28;20065;-70
2023/10/26 02:49:51;;;;;;;103.32;95.35;;;15.90;99.90;;;;;;4973022;28;20043;-70
2023/10/26 02:52:17;;;;;;;102.88;94.65;;;15.80;99.90;;;;;;4971755;28;20039;-70
2023/10/26 02:54:43;;;;;;;108.60;99.78;;;15.80;99.90;;;;;;4967141;28;20099;-70
2023/10/26 02:57:09;;;;;;;106.15;97.80;;;15.80;99.90;;;;;;4962579;28;20066;-70
2023/10/26 02:59:35;;;;;;;109.45;99.78;;;15.90;99.90;;;;;;4966890;28;20031;-70
2023/10/26 03:02:02;;;;;;;106.00;96.85;;;15.80;99.90;;;;;;4962912;28;20040;-70
2023/10/26 03:04:28;;;;;;;106.68;98.30;;;15.80;99.90;;;;;;4966665;28;20053;-70
2023/10/26 03:06:54;;;;;;;102.85;94.60;;;15.80;99.90;;;;;;4964750;28;20035;-70
2023/10/26 03:09:20;;;;;;;96.20;87.40;;;15.80;99.90;;;;;;4966701;28;20492;-70
2023/10/26 03:11:47;;;;;;;95.80;86.50;;;15.70;99.90;;;;;;4969659;28;20026;-70
2023/10/26 03:14:13;;;;;;;94.70;87.43;;;15.70;99.90;;;;;;4970603;28;20041;-70
2023/10/26 03:16:39;;;;;;;124.07;114.00;;;15.70;99.90;;;;;;4971557;28;20051;-70
2023/10/26 03:19:05;;;;;;;102.22;94.05;;;15.70;99.90;;;;;;4963364;28;20039;-70
2023/10/26 03:21:31;;;;;;;90.72;82.68;;;15.70;99.90;;;;;;4963637;28;20035;-70
2023/10/26 03:23:57;;;;;;;92.00;83.85;;;15.70;99.90;;;;;;4970513;28;20038;-69
2023/10/26 03:26:23;;;;;;;97.72;89.82;;;15.80;99.90;;;;;;4967036;28;20107;-70
2023/10/26 03:28:50;;;;;;;91.28;83.40;;;15.80;99.90;;;;;;4964523;28;20488;-70
2023/10/26 03:31:16;;;;;;;93.25;85.30;;;15.80;99.90;;;;;;4968111;28;20039;-70
2023/10/26 03:33:43;;;;;;;97.70;88.47;;;15.80;99.90;;;;;;4970561;28;20054;-71
2023/10/26 03:36:14;;;;;;;95.57;87.18;;;15.70;99.90;;;;;;4963222;28;20042;-70
2023/10/26 03:38:40;;;;;;;96.22;88.82;;;15.80;99.90;;;;;;4954833;28;20055;-70
2023/10/26 03:41:06;;;;;;;98.75;89.35;;;15.80;99.90;;;;;;4969508;28;20035;-71
2023/10/26 03:43:32;;;;;;;99.40;90.50;;;15.80;99.90;;;;;;4969599;28;20034;-70
2023/10/26 03:45:58;;;;;;;90.85;83.60;;;15.70;99.90;;;;;;4968233;28;20035;-70
2023/10/26 03:48:24;;;;;;;96.13;87.80;;;15.70;99.90;;;;;;4970365;28;20046;-70
2023/10/26 03:50:51;;;;;;;102.60;94.40;;;15.70;99.90;;;;;;4971088;28;20034;-70
2023/10/26 03:53:17;;;;;;;97.53;88.93;;;15.70;99.90;;;;;;4963412;28;20035;-69
2023/10/26 03:55:43;;;;;;;98.55;91.22;;;15.60;99.90;;;;;;4962573;28;20023;-70
2023/10/26 03:58:12;;;;;;;100.60;92.40;;;15.60;99.90;;;;;;4969529;28;20452;-70
2023/10/26 04:00:38;;;;;;;91.05;83.53;;;15.60;99.90;;;;;;4967348;28;20031;-70
2023/10/26 04:03:04;;;;;;;96.25;88.20;;;15.70;99.90;;;;;;4968833;28;20043;-70
2023/10/26 04:05:30;;;;;;;102.43;94.65;;;15.60;99.90;;;;;;4968644;28;20579;-70
2023/10/26 04:08:00;;;;;;;102.20;93.75;;;15.60;99.90;;;;;;4971832;28;20051;-70
2023/10/26 04:10:26;;;;;;;102.03;93.87;;;15.60;99.90;;;;;;4970978;28;20043;-70
2023/10/26 04:12:52;;;;;;;98.80;91.72;;;15.60;99.90;;;;;;4970116;28;20412;-70
2023/10/26 04:15:19;;;;;;;102.47;94.68;;;15.60;99.90;;;;;;4967345;28;20035;-69
2023/10/26 04:17:45;;;;;;;108.32;99.53;;;15.50;99.90;;;;;;4967527;28;20043;-70
2023/10/26 04:20:11;;;;;;;106.28;97.78;;;15.50;99.90;;;;;;4957947;28;20511;-71
2023/10/26 04:22:37;;;;;;;100.70;93.05;;;15.50;99.90;;;;;;4963320;28;20484;-71
2023/10/26 04:25:04;;;;;;;112.10;102.88;;;15.50;99.90;;;;;;4966019;28;20039;-71
2023/10/26 04:27:33;;;;;;;101.38;93.72;;;15.50;99.90;;;;;;4957856;28;20023;-71
2023/10/26 04:30:00;;;;;;;104.22;95.90;;;15.50;99.90;;;;;;4961361;28;20507;-71
2023/10/26 04:32:26;;;;;;;102.00;93.93;;;15.50;99.90;;;;;;4964193;28;20038;-71
2023/10/26 04:34:53;;;;;;;99.40;91.78;;;15.50;99.90;;;;;;4965494;28;20038;-71
2023/10/26 04:37:19;;;;;;;98.07;90.07;;;15.50;99.90;;;;;;4962806;28;20028;-71
2023/10/26 04:39:45;;;;;;;96.47;88.20;;;15.40;99.90;;;;;;4962486;28;20507;-72
2023/10/26 04:42:13;;;;;;;97.90;89.28;;;15.40;99.90;;;;;;4965037;28;20036;-72
2023/10/26 04:44:39;;;;;;;105.32;97.00;;;15.30;99.90;;;;;;4959225;28;20031;-71
2023/10/26 04:47:05;;;;;;;105.90;97.53;;;15.30;99.90;;;;;;4956699;28;20046;-71
2023/10/26 04:49:33;;;;;;;109.43;101.10;;;15.20;99.90;;;;;;4954324;28;20055;-71
2023/10/26 04:52:00;;;;;;;111.63;103.50;;;15.20;99.90;;;;;;4962182;28;20035;-71
2023/10/26 04:54:29;;;;;;;114.05;105.00;;;15.20;99.90;;;;;;4959581;28;20031;-71
2023/10/26 04:56:55;;;;;;;107.55;100.13;;;15.20;99.90;;;;;;4964942;28;20027;-72
2023/10/26 04:59:21;;;;;;;111.47;102.60;;;15.20;99.90;;;;;;4970998;28;20035;-71
2023/10/26 05:01:47;;;;;;;109.55;101.32;;;15.20;99.90;;;;;;4969189;28;20039;-72
2023/10/26 05:04:13;;;;;;;111.68;102.53;;;15.20;99.90;;;;;;4968564;28;20031;-71
2023/10/26 05:06:39;;;;;;;115.53;106.65;;;15.20;99.90;;;;;;4961547;28;20032;-71
2023/10/26 05:09:05;;;;;;;111.88;103.22;;;15.20;99.90;;;;;;4965021;28;20404;-71
2023/10/26 05:11:32;;;;;;;117.55;108.13;;;15.30;99.90;;;;;;4964742;28;20479;-71
2023/10/26 05:13:58;;;;;;;116.63;108.20;;;15.40;99.90;;;;;;4974161;28;20483;-70
2023/10/26 05:16:24;;;;;;;117.15;108.80;;;15.40;99.90;;;;;;4971320;28;20058;-71
2023/10/26 05:18:50;;;;;;;118.63;109.85;;;15.40;99.90;;;;;;4959846;28;20042;-71
2023/10/26 05:21:17;;;;;;;123.22;113.70;;;15.40;99.90;;;;;;4988889;28;20047;-70
2023/10/26 05:23:47;;;;;;;103.88;96.05;;;15.40;99.90;;;;;;4975135;28;20035;-71
2023/10/26 05:26:13;;;;;;;113.90;105.57;;;15.40;99.90;;;;;;4959729;28;20035;-71
2023/10/26 05:28:39;;;;;;;114.32;105.45;;;15.40;99.90;;;;;;4959544;28;20047;-71
2023/10/26 05:31:05;;;;;;;114.15;104.55;;;15.40;99.90;;;;;;4958428;28;20036;-71
2023/10/26 05:33:31;;;;;;;105.85;97.72;;;15.40;99.90;;;;;;4955562;29;20031;-71
2023/10/26 05:35:57;;;;;;;109.40;100.85;;;15.30;99.90;;;;;;4969657;28;20384;-70
2023/10/26 05:38:23;;;;;;;101.57;93.70;;;15.30;99.90;;;;;;4974668;28;20078;-71
2023/10/26 05:40:54;;;;;;;100.28;93.07;;;15.30;99.90;;;;;;4969191;28;20030;-71
2023/10/26 05:43:20;;;;;;;102.35;94.38;;;15.20;99.90;;;;;;4937766;28;20046;-72
2023/10/26 05:45:46;;;;;;;98.18;90.78;;;15.20;99.90;;;;;;4963266;28;20039;-71
2023/10/26 05:48:12;;;;;;;107.30;99.38;;;15.20;99.90;;;;;;4958933;28;20043;-70
2023/10/26 05:50:41;;;;;;;104.53;96.82;;;15.30;99.90;;;;;;4956431;28;20066;-70
2023/10/26 05:53:08;;;;;;;111.38;102.90;;;15.30;99.90;;;;;;4970831;28;20042;-71
2023/10/26 05:55:35;;;;;;;110.35;101.93;;;15.30;99.90;;;;;;4964836;28;20107;-70
2023/10/26 05:58:01;;;;;;;103.78;96.15;;;15.30;99.90;;;;;;4974196;28;20352;-70
2023/10/26 06:00:27;;;;;;;106.75;98.85;;;15.20;99.90;;;;;;4974630;28;20035;-71
2023/10/26 06:02:53;;;;;;;105.68;97.97;;;15.30;99.90;;;;;;4974505;28;20034;-70
2023/10/26 06:05:20;;;;;;;103.13;95.43;;;15.30;99.90;;;;;;4955063;28;20046;-70
2023/10/26 06:07:46;;;;;;;108.43;99.95;;;15.30;99.90;;;;;;4964239;28;20062;-71
2023/10/26 06:10:12;;;;;;;91.28;84.13;;;15.30;99.90;;;;;;4968050;28;20043;-70
2023/10/26 06:12:38;;;;;;;108.85;99.85;;;15.30;99.90;;;;;;4973208;28;20035;-70
2023/10/26 06:15:04;;;;;;;116.30;108.20;;;15.30;99.90;;;;;;4973199;28;20034;-70
2023/10/26 06:17:31;;;;;;;110.28;101.28;;;15.30;99.90;;;;;;4970650;28;20043;-70
2023/10/26 06:19:57;;;;;;;113.35;104.43;;;15.40;99.90;;;;;;4973872;28;20027;-70
2023/10/26 06:22:23;;;;;;;104.88;97.50;;;15.30;99.90;;;;;;4959833;28;20495;-70
2023/10/26 06:24:49;;;;;;;102.20;93.57;;;15.30;99.90;;;;;;4961069;28;20031;-71
2023/10/26 06:27:15;;;;;;;98.90;90.93;;;15.20;99.90;;;;;;4968730;28;20043;-71
2023/10/26 06:29:43;;;;;;;103.97;96.28;;;15.20;99.90;;;;;;4955692;29;20389;-71
2023/10/26 06:32:10;;;;;;;99.47;92.32;;;15.20;99.90;;;;;;4966051;28;20042;-71
2023/10/26 06:34:36;;;;;;;93.38;86.50;;;15.20;99.90;;;;;;4955390;29;20038;-71
2023/10/26 06:37:02;;;;;;;94.65;86.50;;;15.20;99.90;;;;;;4958185;28;20044;-71
2023/10/26 06:39:28;;;;;;;89.72;83.40;;;15.20;99.90;;;;;;4954688;28;20050;-70
2023/10/26 06:41:56;;;;;;;94.85;87.38;;;15.20;99.90;;;;;;4955259;28;20035;-71
2023/10/26 06:44:23;;;;;;;93.25;85.78;;;15.20;99.90;;;;;;4954778;28;20047;-70
2023/10/26 06:46:49;;;;;;;88.40;81.05;;;15.20;99.90;;;;;;4955308;28;20039;-70
2023/10/26 06:49:15;;;;;;;86.70;79.82;;;15.20;99.90;;;;;;4965678;28;20059;-71
2023/10/26 06:51:41;;;;;;;86.32;79.38;;;15.20;99.90;;;;;;4963950;28;20031;-71
2023/10/26 06:54:07;;;;;;;87.25;80.10;;;15.20;99.90;;;;;;4972766;28;20480;-70
2023/10/26 06:56:36;;;;;;;92.00;84.53;;;15.20;99.90;;;;;;4964993;28;20031;-70
2023/10/26 06:59:02;;;;;;;97.00;90.00;;;15.20;99.90;;;;;;4959645;28;20039;-70
2023/10/26 07:01:28;;;;;;;93.47;85.63;;;15.20;99.90;;;;;;4954056;28;20493;-70
2023/10/26 07:03:54;;;;;;;94.22;87.20;;;15.10;99.90;;;;;;4965097;28;20030;-71
2023/10/26 07:06:20;;;;;;;103.43;95.20;;;15.10;99.90;;;;;;4966513;28;20400;-70
2023/10/26 07:08:46;;;;;;;104.85;97.43;;;15.10;99.90;;;;;;4972669;28;20043;-70
2023/10/26 07:11:12;;;;;;;103.85;95.63;;;15.20;99.90;;;;;;4973876;28;20042;-71
2023/10/26 07:13:39;;;;;;;95.40;88.03;;;15.10;99.90;;;;;;4964128;28;20047;-71
2023/10/26 07:16:05;;;;;;;83.78;77.35;;;15.10;99.90;;;;;;4953657;28;20079;-70
2023/10/26 07:18:31;;;;;;;101.88;93.57;;;15.10;99.90;;;;;;4954892;28;20054;-70
2023/10/26 07:20:57;;;;;;;98.30;91.10;;;15.10;99.90;;;;;;4954521;28;20039;-71
2023/10/26 07:23:23;;;;;;;87.70;79.65;;;15.10;99.90;;;;;;4960398;28;20391;-70
2023/10/26 07:25:50;;;;;;;110.22;102.25;;;15.10;99.90;;;;;;4967175;28;20031;-70
2023/10/26 07:28:16;;;;;;;99.13;91.95;;;15.20;99.90;;;;;;4954586;29;20046;-71
2023/10/26 07:30:42;;;;;;;107.93;99.90;;;15.10;99.90;;;;;;4957496;28;20496;-70
2023/10/26 07:33:08;;;;;;;110.32;102.45;;;15.10;99.90;;;;;;4973705;28;20051;-70
2023/10/26 07:35:43;;;;;;;106.55;98.22;;;15.00;99.90;;;;;;4969941;28;20038;-71
2023/10/26 07:38:09;;;;;;;101.78;93.13;;;15.00;99.90;;;;;;4954591;29;20496;-71
2023/10/26 07:40:48;;;;;;;102.38;93.65;;;15.00;99.90;;;;;;4954261;28;20027;-71
2023/10/26 07:43:14;;;;;;;111.22;103.07;;;14.90;99.90;;;;;;4961011;28;20488;-70
2023/10/26 07:45:40;;;;;;;104.20;95.82;;;14.90;99.90;;;;;;4968608;28;20404;-71
2023/10/26 07:48:06;;;;;;;112.00;103.60;;;14.90;99.90;;;;;;4954290;29;20023;-71
2023/10/26 07:50:32;;;;;;;121.32;111.45;;;14.90;99.90;;;;;;4954048;28;20411;-71
2023/10/26 07:52:58;;;;;;;125.53;115.43;;;15.00;99.90;;;;;;4956940;28;20038;-70
2023/10/26 07:55:24;;;;;;;122.07;112.88;;;15.00;99.90;;;;;;4973234;28;20042;-70
2023/10/26 07:57:51;;;;;;;116.10;106.88;;;15.00;99.90;;;;;;4988417;28;20054;-70
2023/10/26 08:00:17;;;;;;;116.82;107.65;;;15.00;99.90;;;;;;4971579;28;20488;-71
2023/10/26 08:02:43;;;;;;;98.88;90.88;;;15.00;99.90;;;;;;4954349;28;20027;-71
2023/10/26 08:05:09;;;;;;;96.15;88.93;;;15.10;99.90;;;;;;4972997;28;20038;-71
2023/10/26 08:07:38;;;;;;;90.18;82.93;;;15.10;99.90;;;;;;4953810;28;20492;-71
2023/10/26 08:10:05;;;;;;;100.75;93.22;;;15.10;99.90;;;;;;4953349;28;20066;-70
2023/10/26 08:12:31;;;;;;;112.20;102.82;;;15.10;99.90;;;;;;4953762;28;20083;-71
2023/10/26 08:14:57;;;;;;;121.35;111.85;;;15.20;99.90;;;;;;4970985;28;20038;-70
2023/10/26 08:17:25;;;;;;;110.38;101.13;;;15.20;99.90;;;;;;4957136;28;20497;-71
2023/10/26 08:19:54;;;;;;;110.00;102.20;;;15.20;99.90;;;;;;4954091;29;20034;-71
2023/10/26 08:22:23;;;;;;;113.30;105.57;;;15.10;99.90;;;;;;4955760;28;20476;-71
2023/10/26 08:24:50;;;;;;;109.70;101.90;;;15.20;99.90;;;;;;4966214;28;20027;-71
2023/10/26 08:27:16;;;;;;;119.68;110.60;;;15.20;99.90;;;;;;4967594;28;20043;-71
2023/10/26 08:29:42;;;;;;;97.22;90.05;;;15.20;99.90;;;;;;4972841;28;20038;-71
2023/10/26 08:32:08;;;;;;;109.18;100.75;;;15.20;99.90;;;;;;4955776;28;20535;-70
2023/10/26 08:34:34;;;;;;;116.97;108.82;;;15.20;99.90;;;;;;4963357;28;20043;-70
2023/10/26 08:37:01;;;;;;;114.35;106.60;;;15.10;99.90;;;;;;4963080;28;20054;-71
2023/10/26 08:39:27;;;;;;;109.57;100.90;;;15.20;99.90;;;;;;4957696;28;20030;-70
2023/10/26 08:42:01;;;;;;;121.40;112.82;;;15.20;99.90;;;;;;4962513;28;20398;-71
2023/10/26 08:44:27;;;;;;;106.15;98.10;;;15.20;99.90;;;;;;4972293;28;20031;-70
2023/10/26 08:46:58;;;;;;;108.32;100.18;;;15.20;99.90;;;;;;4969371;28;20050;-71
2023/10/26 08:49:28;;;;;;;107.68;100.05;;;15.20;99.90;;;;;;4957605;29;20472;-70
2023/10/26 08:51:54;;;;;;;117.97;109.88;;;15.20;99.90;;;;;;4972192;28;20116;-71
2023/10/26 08:54:21;;;;;;;113.78;105.55;;;15.20;99.90;;;;;;4956360;28;20035;-70
2023/10/26 08:56:47;;;;;;;112.60;104.85;;;15.30;99.90;;;;;;4957311;28;20031;-71
2023/10/26 08:59:13;;;;;;;112.45;104.47;;;15.30;99.90;;;;;;4976449;28;20038;-71
2023/10/26 09:01:43;;;;;;;112.10;104.47;;;15.30;99.90;;;;;;4962783;28;20400;-70
2023/10/26 09:04:10;;;;;;;107.00;99.05;;;15.40;99.90;;;;;;4962886;28;20034;-71
2023/10/26 09:06:46;;;;;;;108.18;100.75;;;15.40;99.90;;;;;;4976240;28;20051;-71
2023/10/26 09:09:16;;;;;;;113.32;105.55;;;15.40;99.90;;;;;;4975292;28;20039;-71
2023/10/26 09:11:46;;;;;;;115.80;107.35;;;15.40;99.90;;;;;;4963219;28;20679;-71
2023/10/26 09:14:17;;;;;;;113.90;105.75;;;15.50;99.90;;;;;;4974848;28;20059;-71
2023/10/26 09:16:45;;;;;;;115.38;107.30;;;15.60;99.90;;;;;;4954694;28;20062;-70
2023/10/26 09:19:12;;;;;;;109.15;101.32;;;15.60;99.90;;;;;;4971789;28;20034;-71
2023/10/26 09:21:55;;;;;;;117.78;109.50;;;15.60;99.90;;;;;;4967589;28;20037;-71
2023/10/26 09:24:26;;;;;;;114.30;106.13;;;15.60;99.90;;;;;;4974724;28;20394;-71
2023/10/26 09:26:58;;;;;;;120.32;112.20;;;15.60;99.90;;;;;;4966359;28;20026;-70
2023/10/26 09:29:40;;;;;;;121.18;112.50;;;15.60;99.90;;;;;;4975053;28;20045;-70
2023/10/26 09:32:06;;;;;;;115.15;106.32;;;15.70;99.90;;;;;;4958888;28;20046;-70
2023/10/26 09:34:43;;;;;;;114.78;106.47;;;15.70;99.90;;;;;;4939803;29;20046;-71
2023/10/26 09:37:10;;;;;;;121.22;113.07;;;15.70;99.90;;;;;;4961516;28;20043;-71
2023/10/26 09:39:38;;;;;;;113.88;105.72;;;15.70;99.90;;;;;;4976169;28;20115;-71
2023/10/26 09:42:11;;;;;;;123.38;114.93;;;15.80;99.90;;;;;;4959139;28;20381;-70
2023/10/26 09:44:37;;;;;;;125.07;116.13;;;15.70;99.90;;;;;;4955871;28;20042;-71
2023/10/26 09:47:03;;;;;;;124.78;116.30;;;15.70;99.90;;;;;;4955761;28;20043;-71
2023/10/26 09:49:30;;;;;;;139.15;129.80;;;15.70;99.90;;;;;;4965688;28;20043;-70
2023/10/26 09:51:58;;;;;;;122.15;113.32;;;15.80;99.90;;;;;;4970915;28;20043;-71
2023/10/26 09:54:35;;;;;;;128.07;119.55;;;15.80;99.90;;;;;;4971032;28;20035;-71
2023/10/26 09:57:13;;;;;;;140.73;131.35;;;15.80;99.90;;;;;;4973890;28;20361;-71
2023/10/26 09:59:39;;;;;;;124.53;116.53;;;15.80;99.90;;;;;;4974541;28;20113;-71
2023/10/26 10:02:17;;;;;;;125.18;116.93;;;15.80;99.90;;;;;;4970253;28;20035;-70
2023/10/26 10:04:44;;;;;;;123.03;114.25;;;15.80;99.90;;;;;;4970639;28;20511;-70
2023/10/26 10:07:15;;;;;;;137.52;129.05;;;15.80;99.90;;;;;;4954545;28;20404;-71
2023/10/26 10:09:59;;;;;;;;;;;15.90;99.90;;;;;;4955438;29;20054;-71
2023/10/26 10:12:25;;;;;;;107.47;100.38;;;15.90;99.90;;;;;;4963068;28;19926;-71
2023/10/26 10:14:53;;;;;;;118.32;110.53;;;16.00;99.90;;;;;;4974232;28;20050;-71
2023/10/26 10:17:20;;;;;;;134.23;125.75;;;16.00;99.90;;;;;;4957267;28;20066;-70
2023/10/26 10:19:47;;;;;;;141.65;131.93;;;16.00;99.90;;;;;;4938744;29;20039;-71
2023/10/26 10:22:37;;;;;;;143.68;134.15;;;16.00;99.90;;;;;;4955555;28;20054;-71
2023/10/26 10:25:04;;;;;;;129.57;120.57;;;16.10;99.90;;;;;;4958940;28;20360;-71
2023/10/26 10:27:30;;;;;;;130.82;122.07;;;16.00;99.90;;;;;;4973146;28;20400;-70
2023/10/26 10:29:57;;;;;;;139.35;130.52;;;16.00;99.90;;;;;;4973724;28;20031;-70
2023/10/26 10:35:10;;;;;;;143.77;134.90;;;16.10;99.90;;;;;;4949652;28;20031;-70
2023/10/26 10:37:36;;;;;;;150.07;140.45;;;16.20;99.90;;;;;;4959979;28;20027;-71
2023/10/26 10:40:15;;;;;;;151.95;141.95;;;16.20;99.90;;;;;;4954112;29;20527;-71
2023/10/26 10:42:49;;;;;;;152.07;142.25;;;16.20;99.90;;;;;;4955353;28;20055;-71
2023/10/26 10:45:16;;;;;;;153.35;143.20;;;16.20;99.90;;;;;;4953602;28;20038;-71
2023/10/26 10:47:43;;;;;;;149.10;140.27;;;16.30;99.90;;;;;;4954144;28;20035;-71
2023/10/26 10:50:22;;;;;;;161.35;151.02;;;16.20;99.90;;;;;;4954053;29;20039;-71
2023/10/26 10:52:50;;;;;;;152.90;143.15;;;16.20;99.90;;;;;;4954016;29;20047;-71
2023/10/26 10:55:20;;;;;;;169.13;158.70;;;16.30;99.90;;;;;;4955290;28;20039;-71
2023/10/26 10:57:53;;;;;;;159.70;149.98;;;16.30;99.90;;;;;;4974112;28;20043;-71
2023/10/26 11:00:20;;;;;;;163.10;153.00;;;16.30;99.90;;;;;;4972734;28;20034;-71
2023/10/26 11:02:47;;;;;;;162.25;151.65;;;16.30;99.90;;;;;;4955215;29;20026;-71
2023/10/26 11:05:13;;;;;;;159.48;148.93;;;16.30;99.90;;;;;;4953641;28;20046;-71
2023/10/26 11:07:40;;;;;;;174.48;163.63;;;16.30;99.90;;;;;;4955067;28;20023;-71
2023/10/26 11:10:07;;;;;;;163.70;153.65;;;16.30;99.90;;;;;;4953827;28;20039;-71
2023/10/26 11:12:34;;;;;;;139.43;130.23;;;16.40;99.90;;;;;;4973475;28;20042;-71
2023/10/26 11:15:00;;;;;;;161.73;151.13;;;16.30;99.90;;;;;;4974230;28;20030;-70
2023/10/26 11:17:27;;;;;;;160.82;150.48;;;16.30;99.90;;;;;;4958229;28;20050;-71
2023/10/26 11:19:53;;;;;;;173.18;162.05;;;16.30;99.90;;;;;;4972996;28;20030;-70
2023/10/26 11:22:20;;;;;;;170.57;159.25;;;16.30;99.90;;;;;;4973764;28;20376;-71
2023/10/26 11:24:46;;;;;;;158.32;147.95;;;16.30;99.90;;;;;;4965923;28;20046;-71
2023/10/26 11:27:16;;;;;;;172.85;161.75;;;16.30;99.90;;;;;;4967430;28;20034;-71
2023/10/26 11:29:43;;;;;;;178.90;168.10;;;16.40;99.90;;;;;;4950822;28;20051;-71
2023/10/26 11:32:19;;;;;;;137.23;128.60;;;16.40;99.90;;;;;;4952796;28;20038;-70
2023/10/26 11:35:22;;;;;;;157.43;147.25;;;16.30;99.90;;;;;;4969346;28;20038;-70
2023/10/26 11:37:55;;;;;;;180.07;169.15;;;16.30;99.90;;;;;;4943672;28;20039;-71
2023/10/26 11:40:30;;;;;;;175.70;164.25;;;16.30;99.90;;;;;;4949279;29;20401;-71
2023/10/26 11:43:00;;;;;;;179.85;168.65;;;16.20;99.90;;;;;;4935185;29;20035;-71
2023/10/26 11:45:26;;;;;;;180.77;169.38;;;16.20;99.90;;;;;;4933798;28;20142;-71
2023/10/26 11:47:56;;;;;;;177.65;166.35;;;16.20;99.90;;;;;;4955430;28;20027;-71
2023/10/26 11:50:22;;;;;;;164.15;153.35;;;16.20;99.90;;;;;;4950934;29;20039;-71
2023/10/26 11:52:49;;;;;;;153.77;144.00;;;16.20;99.90;;;;;;4950365;29;20046;-70
2023/10/26 11:55:15;;;;;;;161.32;151.52;;;16.30;99.90;;;;;;4950839;29;20038;-71
2023/10/26 11:57:41;;;;;;;153.27;143.55;;;16.30;99.90;;;;;;4969340;28;20046;-71
2023/10/26 12:00:09;;;;;;;138.15;129.63;;;16.30;99.90;;;;;;4969289;28;20042;-70
2023/10/26 12:02:35;;;;;;;169.15;158.88;;;16.20;99.90;;;;;;4950456;29;20067;-71
2023/10/26 12:05:03;;;;;;;164.38;153.45;;;16.20;99.90;;;;;;4942353;29;20047;-71
2023/10/26 12:07:30;;;;;;;166.18;155.88;;;16.10;99.90;;;;;;4945248;28;20048;-70
2023/10/26 12:09:56;;;;;;;158.40;148.75;;;16.10;99.90;;;;;;4932283;29;20374;-70
2023/10/26 12:12:22;;;;;;;150.88;141.35;;;16.10;99.90;;;;;;4970924;28;20043;-71
2023/10/26 12:14:48;;;;;;;169.20;158.13;;;16.10;99.90;;;;;;4961079;28;20034;-70
2023/10/26 12:17:14;;;;;;;168.80;158.07;;;16.10;99.90;;;;;;4970343;28;20054;-71